Cat Spring, Texas
Current Conditions -  °F | °C
As of 9:35 PM on Wednesday 22 Oct 2014 (Local Time) from KELA Reporting Station
Clear Clear  
Wind Chill: 67°   Ceiling: Unl
Heat Index: 67°   Visibility: 10mi
Dew Point: 59°   Wind: 3mph
Humidity: 76%   Direction: 90°E
Pressure: 30.08"   Gusts: NA
Location:  29.85°N, 96.33°W
Report Text: KELA 230235Z AUTO 09003KT 10SM CLR 20/15 A3008 RMK AO2 T01960152
Loading
Personal Weather Stations






























Interactive Weather Map
Tropical Storm Tracking
New forecast layout! Learn more

10-Day Weather Forecast

Advertisements
Track Severe Weather on mobile